Time;durP1;ratioP1;P1;durP2;ratioP2;P2;SDS_P1;SDS_P2;PMS_P1;PMS_P2;Temp;Humidity;BMP_temperature;BMP_pressure;BME280_temperature;BME280_humidity;BME280_pressure;Samples;Min_cycle;Max_cycle;Signal;HPM_P1;HPM_P2
2022/12/05 00:01:50;;;;;;;43.23;19.53;;;;;;;3.96;100.00;148447.16;5030424;28;20405;-61
2022/12/05 00:04:15;;;;;;;45.57;21.27;;;;;;;3.90;100.00;148431.75;5031684;28;20102;-61
2022/12/05 00:06:42;;;;;;;41.13;18.93;;;;;;;3.98;100.00;148452.31;5030864;28;20524;-61
2022/12/05 00:09:09;;;;;;;38.57;17.10;;;;;;;3.98;100.00;148452.31;5031194;28;20045;-61
2022/12/05 00:11:36;;;;;;;40.23;17.17;;;;;;;3.98;100.00;148452.31;5015934;28;20386;-61
2022/12/05 00:14:03;;;;;;;47.00;20.67;;;;;;;3.99;100.00;148453.59;5030097;28;20132;-61
2022/12/05 00:16:31;;;;;;;41.23;18.40;;;;;;;3.95;100.00;148443.31;5031168;28;20033;-61
2022/12/05 00:18:59;;;;;;;40.87;18.33;;;;;;;3.95;100.00;148443.31;5035422;28;20100;-61
2022/12/05 00:21:28;;;;;;;46.87;21.73;;;;;;;3.94;100.00;148442.03;5033724;28;20035;-61
2022/12/05 00:23:55;;;;;;;46.93;20.97;;;;;;;3.94;100.00;148442.03;5035124;28;20108;-61
2022/12/05 00:26:21;;;;;;;44.53;20.67;;;;;;;3.96;100.00;148447.16;5034561;28;20025;-61
2022/12/05 00:28:47;;;;;;;41.30;17.93;;;;;;;3.92;100.00;148436.88;5032480;28;20105;-61
2022/12/05 00:31:18;;;;;;;50.70;23.53;;;;;;;3.92;100.00;148436.88;5035247;28;20112;-61
2022/12/05 00:33:45;;;;;;;40.90;17.58;;;;;;;3.91;100.00;148434.31;5034734;28;20508;-61
2022/12/05 00:36:25;;;;;;;42.47;19.20;;;;;;;3.93;100.00;148438.16;5033798;28;20389;-62
2022/12/05 00:38:51;;;;;;;48.63;22.87;;;;;;;3.91;100.00;148433.03;5034232;28;20032;-61
2022/12/05 00:41:22;;;;;;;41.57;17.73;;;;;;;3.93;100.00;148438.16;5033970;28;20603;-61
2022/12/05 00:43:49;;;;;;;45.30;21.75;;;;;;;3.95;100.00;148443.31;5021189;28;20029;-61
2022/12/05 00:46:25;;;;;;;51.77;22.67;;;;;;;3.93;100.00;148438.16;5033325;28;20457;-61
2022/12/05 00:48:52;;;;;;;40.67;18.03;;;;;;;3.98;100.00;148452.31;5034586;28;20040;-62
2022/12/05 00:51:27;;;;;;;46.87;21.93;;;;;;;3.96;100.00;148447.16;5033089;28;20032;-61
2022/12/05 00:53:52;;;;;;;54.53;23.67;;;;;;;3.93;100.00;148439.44;5034156;28;20079;-61
2022/12/05 00:56:22;;;;;;;50.37;22.97;;;;;;;3.90;100.00;148431.75;5033649;28;20485;-61
2022/12/05 00:58:50;;;;;;;42.90;17.87;;;;;;;3.94;100.00;148442.03;5034244;28;20021;-61
2022/12/05 01:01:31;;;;;;;47.97;20.17;;;;;;;3.97;100.00;148449.72;5034341;28;20029;-62
2022/12/05 01:03:58;;;;;;;42.23;19.70;;;;;;;3.94;100.00;148442.03;5033796;28;20032;-61
2022/12/05 01:06:25;;;;;;;41.23;18.90;;;;;;;3.90;100.00;148431.75;5033943;28;20029;-61
2022/12/05 01:08:53;;;;;;;46.43;21.33;;;;;;;3.87;100.00;148422.69;5034104;28;20017;-61
2022/12/05 01:11:20;;;;;;;47.03;19.67;;;;;;;3.90;100.00;148430.44;5032584;28;20087;-61
2022/12/05 01:13:46;;;;;;;41.73;18.30;;;;;;;3.90;100.00;148431.75;5023275;28;20549;-61
2022/12/05 01:16:27;;;;;;;34.87;14.37;;;;;;;3.86;100.00;148421.41;5030069;28;20021;-61
2022/12/05 01:18:53;;;;;;;40.63;18.33;;;;;;;3.85;100.00;148418.84;5034017;28;20461;-61
2022/12/05 01:21:19;;;;;;;37.67;17.63;;;;;;;3.86;100.00;148421.41;5032539;28;20029;-61
2022/12/05 01:23:44;;;;;;;44.57;18.13;;;;;;;3.89;100.00;148429.16;5034237;28;20025;-61
2022/12/05 01:26:12;;;;;;;46.27;20.20;;;;;;;3.90;100.00;148431.75;5030914;28;20381;-61
2022/12/05 01:28:38;;;;;;;54.17;24.33;;;;;;;3.87;100.00;148423.97;5022504;28;20079;-61
2022/12/05 01:31:06;;;;;;;49.07;22.83;;;;;;;3.85;100.00;148418.84;5032841;28;20481;-61
2022/12/05 01:33:32;;;;;;;42.77;20.00;;;;;;;3.81;100.00;148409.84;5033510;28;20026;-61
2022/12/05 01:35:58;;;;;;;49.87;23.57;;;;;;;3.76;100.00;148396.97;5032889;28;20072;-61
2022/12/05 01:38:23;;;;;;;47.20;23.50;;;;;;;3.79;100.00;148403.41;5016974;28;20026;-61
2022/12/05 01:40:48;;;;;;;45.10;19.23;;;;;;;3.85;100.00;148418.84;5014789;28;20069;-61
2022/12/05 01:43:16;;;;;;;42.60;18.60;;;;;;;3.84;100.00;148416.25;5033869;28;20021;-61
2022/12/05 01:45:44;;;;;;;41.97;17.07;;;;;;;3.85;100.00;148418.84;5033367;28;20040;-61
2022/12/05 01:48:36;;;;;;;46.37;19.33;;;;;;;3.86;100.00;148421.41;5032954;28;20385;-61
2022/12/05 01:51:02;;;;;;;47.92;21.27;;;;;;;3.78;100.00;148400.84;5031298;28;20084;-61
2022/12/05 01:53:28;;;;;;;53.33;24.43;;;;;;;3.77;100.00;148398.28;5027829;28;20507;-61
2022/12/05 01:55:54;;;;;;;46.43;20.80;;;;;;;3.79;100.00;148403.41;5032899;28;20029;-61
2022/12/05 01:58:20;;;;;;;48.47;21.43;;;;;;;3.75;100.00;148394.34;5031496;28;20043;-62
2022/12/05 02:00:46;;;;;;;48.43;21.93;;;;;;;3.75;100.00;148393.06;5033743;28;20017;-63
2022/12/05 02:03:19;;;;;;;49.67;21.10;;;;;;;3.73;100.00;148389.22;5067852;22;20025;-72
2022/12/05 02:05:49;;;;;;;51.13;24.07;;;;;;;3.70;100.00;148381.50;5045754;23;20058;-72
2022/12/05 02:08:15;;;;;;;40.73;16.90;;;;;;;3.71;100.00;148382.78;5067423;28;20029;-71
2022/12/05 02:10:45;;;;;;;49.27;21.40;;;;;;;3.70;100.00;148380.22;5053337;28;20395;-71
2022/12/05 02:13:35;;;;;;;44.60;20.73;;;;;;;3.70;100.00;148380.22;5052458;28;20029;-72
2022/12/05 02:16:10;;;;;;;50.43;20.50;;;;;;;3.70;100.00;148380.22;5051871;28;20051;-71
2022/12/05 02:19:03;;;;;;;52.70;23.80;;;;;;;3.66;100.00;148369.94;5038491;28;20468;-71
2022/12/05 02:21:48;;;;;;;44.90;20.10;;;;;;;3.64;100.00;148364.78;5048741;28;20087;-72
2022/12/05 02:24:25;;;;;;;53.60;24.43;;;;;;;3.60;100.00;148354.47;5051541;28;20083;-72
2022/12/05 02:26:53;;;;;;;56.43;25.27;;;;;;;3.59;100.00;148351.91;5051996;28;20396;-72
2022/12/05 02:29:34;;;;;;;52.47;22.90;;;;;;;3.61;100.00;148358.31;5045198;28;20433;-72
2022/12/05 02:32:11;;;;;;;55.53;23.53;;;;;;;3.64;100.00;148364.78;5032389;28;20052;-72
2022/12/05 02:35:23;;;;;;;33.57;15.40;;;;;;;3.63;100.00;148362.19;5052299;28;20108;-72
2022/12/05 02:37:57;;;;;;;55.40;25.07;;;;;;;3.62;100.00;148359.59;5051726;28;20061;-72
2022/12/05 02:40:29;;;;;;;57.27;23.83;;;;;;;3.58;100.00;148349.31;5051591;28;20029;-72
2022/12/05 02:43:04;;;;;;;58.93;24.13;;;;;;;3.60;100.00;148354.47;5051834;28;20043;-72
2022/12/05 02:45:33;;;;;;;57.40;24.87;;;;;;;3.58;100.00;148350.63;5052313;28;20028;-72
2022/12/05 02:47:59;;;;;;;59.77;25.37;;;;;;;3.58;100.00;148349.31;5051573;28;20120;-72
2022/12/05 02:50:31;;;;;;;63.03;28.00;;;;;;;3.61;100.00;148357.03;5051920;28;20025;-72
2022/12/05 02:52:59;;;;;;;;;;;;;;;3.59;100.00;148351.91;5051754;28;20032;-72
2022/12/05 02:55:27;;;;;;;61.60;24.40;;;;;;;3.55;100.00;148341.63;5052375;28;19954;-72
2022/12/05 02:57:57;;;;;;;57.30;23.23;;;;;;;3.56;100.00;148344.19;5041290;28;20552;-71
2022/12/05 03:00:22;;;;;;;57.63;24.17;;;;;;;3.56;100.00;148345.47;5042883;28;20033;-72
2022/12/05 03:02:52;;;;;;;59.13;24.30;;;;;;;3.57;100.00;148346.75;5051976;28;20112;-72
2022/12/05 03:05:39;;;;;;;63.40;25.60;;;;;;;3.56;100.00;148344.19;5051798;28;20033;-72
2022/12/05 03:08:09;;;;;;;56.53;23.47;;;;;;;3.59;100.00;148353.19;5050374;28;20040;-72
2022/12/05 03:10:39;;;;;;;60.43;25.53;;;;;;;3.59;100.00;148353.19;5050113;28;20047;-72
2022/12/05 03:13:10;;;;;;;58.23;22.77;;;;;;;3.61;100.00;148357.03;5051790;28;20072;-72
2022/12/05 03:15:43;;;;;;;58.33;24.23;;;;;;;3.61;100.00;148357.03;5051671;28;20024;-72
2022/12/05 03:18:16;;;;;;;63.33;27.03;;;;;;;3.57;100.00;148346.75;5062549;28;20366;-72
2022/12/05 03:20:52;;;;;;;66.30;26.40;;;;;;;3.60;100.00;148355.75;5051793;28;20029;-70
2022/12/05 03:23:31;;;;;;;67.63;25.97;;;;;;;3.55;100.00;148341.63;5046363;28;20037;-71
2022/12/05 03:26:13;;;;;;;63.53;25.47;;;;;;;3.56;100.00;148345.47;5045652;28;20029;-72
2022/12/05 03:28:50;;;;;;;;;;;;;;;3.58;100.00;148350.63;5049736;28;20032;-72
2022/12/05 03:31:24;;;;;;;64.33;25.87;;;;;;;3.55;100.00;148342.91;5049484;28;19915;-72
2022/12/05 03:33:53;;;;;;;63.97;26.80;;;;;;;3.57;100.00;148346.75;5050894;28;20481;-72
2022/12/05 03:36:32;;;;;;;64.93;27.00;;;;;;;3.55;100.00;148341.63;5051121;28;20024;-72
2022/12/05 03:39:16;;;;;;;67.37;25.60;;;;;;;3.59;100.00;148351.91;5049702;28;20029;-71
2022/12/05 03:42:02;;;;;;;67.43;27.60;;;;;;;3.58;100.00;148350.63;5046966;28;20040;-72
2022/12/05 03:44:42;;;;;;;74.67;27.87;;;;;;;3.52;100.00;148336.47;5051902;28;20028;-72
2022/12/05 03:47:19;;;;;;;71.57;26.67;;;;;;;3.55;100.00;148341.63;5050614;28;20074;-72
2022/12/05 03:49:50;;;;;;;71.83;26.73;;;;;;;3.55;100.00;148342.91;5051432;28;20063;-71
2022/12/05 03:52:26;;;;;;;77.10;27.60;;;;;;;3.53;100.00;148339.03;5050394;28;20032;-71
2022/12/05 03:54:58;;;;;;;71.80;27.67;;;;;;;3.51;100.00;148333.91;5049997;28;20083;-72
2022/12/05 03:57:32;;;;;;;76.50;27.30;;;;;;;3.52;100.00;148336.47;5048168;28;20041;-72
2022/12/05 04:00:07;;;;;;;70.90;25.37;;;;;;;3.53;100.00;148339.03;5045824;28;20521;-72
2022/12/05 04:02:46;;;;;;;78.70;28.10;;;;;;;3.59;100.00;148353.19;5044630;28;20029;-69
2022/12/05 04:05:22;;;;;;;61.90;22.13;;;;;;;3.59;100.00;148353.19;5036633;28;20064;-68
2022/12/05 04:08:26;;;;;;;68.70;26.60;;;;;;;3.60;100.00;148354.47;5034041;28;20427;-68
2022/12/05 04:10:57;;;;;;;62.33;22.80;;;;;;;3.61;100.00;148357.03;5048814;28;20076;-68
2022/12/05 04:13:33;;;;;;;72.20;25.67;;;;;;;3.59;100.00;148351.91;5049212;28;20144;-69
2022/12/05 04:19:18;;;;;;;69.33;24.13;;;;;;;3.57;100.00;148348.03;5038440;28;20083;-68
2022/12/05 04:21:49;;;;;;;66.10;24.40;;;;;;;3.59;100.00;148351.91;5024358;28;20160;-71
2022/12/05 04:27:26;;;;;;;71.90;25.17;;;;;;;3.62;100.00;148360.91;5049614;28;20039;-68
2022/12/05 04:29:54;;;;;;;73.27;26.47;;;;;;;3.63;100.00;148362.19;5051061;28;20024;-68
2022/12/05 04:32:25;;;;;;;61.57;22.70;;;;;;;3.70;100.00;148380.22;5051194;28;20025;-68
2022/12/05 04:34:57;;;;;;;71.50;24.80;;;;;;;3.67;100.00;148372.50;5043605;28;20025;-68
2022/12/05 04:37:25;;;;;;;81.10;26.97;;;;;;;3.62;100.00;148359.59;5048160;28;20090;-68
2022/12/05 04:40:00;;;;;;;72.23;25.40;;;;;;;3.65;100.00;148367.38;5050101;28;20021;-68
2022/12/05 04:42:29;;;;;;;68.17;24.83;;;;;;;3.65;100.00;148367.38;5050987;28;20111;-69
2022/12/05 04:45:01;;;;;;;70.97;25.33;;;;;;;3.64;100.00;148366.09;5051104;28;20041;-68
2022/12/05 04:47:31;;;;;;;90.75;28.13;;;;;;;3.66;100.00;148369.94;5050176;28;20067;-68
2022/12/05 04:49:59;;;;;;;83.10;27.83;;;;;;;3.62;100.00;148359.59;5050593;28;20045;-68
2022/12/05 04:52:27;;;;;;;83.47;27.03;;;;;;;3.61;100.00;148358.31;5050299;28;20579;-69
2022/12/05 04:55:08;;;;;;;93.57;27.23;;;;;;;3.61;100.00;148357.03;5043559;28;20025;-69
2022/12/05 04:58:05;;;;;;;82.50;27.10;;;;;;;3.63;100.00;148363.47;5049579;28;20506;-68
2022/12/05 05:00:33;;;;;;;90.13;28.00;;;;;;;3.62;100.00;148359.59;5050842;28;20151;-69
2022/12/05 05:03:26;;;;;;;86.77;27.97;;;;;;;3.65;100.00;148367.38;5050326;28;20059;-68
2022/12/05 05:05:54;;;;;;;87.87;28.93;;;;;;;3.62;100.00;148359.59;5042849;28;20033;-68
2022/12/05 05:08:26;;;;;;;90.23;26.77;;;;;;;3.62;100.00;148359.59;5045744;28;20079;-68
2022/12/05 05:11:02;;;;;;;101.37;28.97;;;;;;;3.61;100.00;148357.03;5053907;28;20104;-68
2022/12/05 05:13:28;;;;;;;93.80;28.83;;;;;;;3.62;100.00;148360.91;5053608;28;20436;-68
2022/12/05 05:15:53;;;;;;;105.77;29.50;;;;;;;3.63;100.00;148363.47;5054353;28;20045;-68
2022/12/05 05:18:18;;;;;;;96.93;27.83;;;;;;;3.64;100.00;148364.78;5053343;28;20112;-69
2022/12/05 05:20:44;;;;;;;93.53;29.27;;;;;;;3.64;100.00;148364.78;5054205;28;20087;-68
2022/12/05 05:23:09;;;;;;;99.67;28.60;;;;;;;3.65;100.00;148367.38;5052491;28;20503;-68
2022/12/05 05:25:34;;;;;;;90.50;27.70;;;;;;;3.63;100.00;148363.47;5053828;28;20437;-68
2022/12/05 05:28:00;;;;;;;84.10;27.37;;;;;;;3.70;100.00;148380.22;5052283;28;20094;-68
2022/12/05 05:30:26;;;;;;;95.30;26.97;;;;;;;3.69;100.00;148377.66;5053106;28;20029;-68
2022/12/05 05:32:52;;;;;;;92.03;28.43;;;;;;;3.70;100.00;148380.22;5053943;28;20017;-69
2022/12/05 05:35:17;;;;;;;93.67;27.43;;;;;;;3.69;100.00;148377.66;5053837;28;20031;-68
2022/12/05 05:37:43;;;;;;;94.60;28.70;;;;;;;3.68;100.00;148375.09;5051407;28;20450;-68
2022/12/05 05:40:10;;;;;;;96.90;27.97;;;;;;;3.68;100.00;148376.38;5053635;28;20028;-68
2022/12/05 05:42:40;;;;;;;108.40;30.47;;;;;;;3.65;100.00;148367.38;5053746;28;20100;-69
2022/12/05 05:45:06;;;;;;;85.77;25.57;;;;;;;3.72;100.00;148385.38;5053640;28;20083;-69
2022/12/05 05:47:31;;;;;;;89.27;27.50;;;;;;;3.73;100.00;148387.94;5052846;28;20029;-68
2022/12/05 05:49:57;;;;;;;92.17;28.13;;;;;;;3.70;100.00;148381.50;5053678;28;20074;-68
2022/12/05 05:52:22;;;;;;;90.03;27.20;;;;;;;3.73;100.00;148387.94;5051581;28;20021;-68
2022/12/05 05:54:47;;;;;;;105.83;28.63;;;;;;;3.73;100.00;148387.94;5052596;28;20089;-68
2022/12/05 05:57:13;;;;;;;90.87;26.83;;;;;;;3.73;100.00;148387.94;5052588;28;20024;-69
2022/12/05 05:59:38;;;;;;;95.50;27.00;;;;;;;3.75;100.00;148393.06;5051844;28;20021;-68
2022/12/05 06:02:03;;;;;;;102.43;27.60;;;;;;;3.72;100.00;148385.38;5050392;28;20096;-68
2022/12/05 06:04:29;;;;;;;84.93;26.20;;;;;;;3.73;100.00;148387.94;5053121;28;20033;-68
2022/12/05 06:06:54;;;;;;;75.47;24.33;;;;;;;3.72;100.00;148386.66;5052717;28;20029;-68
2022/12/05 06:09:19;;;;;;;87.83;27.67;;;;;;;3.72;100.00;148385.38;5049662;28;20064;-68
2022/12/05 06:11:45;;;;;;;89.20;27.43;;;;;;;3.72;100.00;148385.38;5053274;28;20016;-68
2022/12/05 06:14:10;;;;;;;80.03;26.93;;;;;;;3.72;100.00;148385.38;5050205;28;20032;-69
2022/12/05 06:16:35;;;;;;;90.63;27.43;;;;;;;3.71;100.00;148384.06;5052238;28;20021;-69
2022/12/05 06:19:01;;;;;;;86.60;26.00;;;;;;;3.73;100.00;148387.94;5051990;28;20035;-68
2022/12/05 06:21:27;;;;;;;83.80;25.73;;;;;;;3.74;100.00;148390.50;5052646;28;20025;-68
2022/12/05 06:23:53;;;;;;;91.70;26.50;;;;;;;3.77;100.00;148398.28;5050658;28;20029;-68
2022/12/05 06:26:20;;;;;;;86.97;26.63;;;;;;;3.77;100.00;148398.28;5051714;28;20468;-69
2022/12/05 06:28:45;;;;;;;81.53;25.80;;;;;;;3.77;100.00;148398.28;5048234;28;20029;-69
2022/12/05 06:31:14;;;;;;;82.47;24.33;;;;;;;3.77;100.00;148399.56;5052142;28;20023;-68
2022/12/05 06:33:40;;;;;;;83.50;25.23;;;;;;;3.79;100.00;148403.41;5052721;28;20024;-68
2022/12/05 06:36:14;;;;;;;79.67;24.13;;;;;;;3.81;100.00;148408.53;5050531;28;20111;-68
2022/12/05 06:38:40;;;;;;;85.10;24.87;;;;;;;3.82;100.00;148412.41;5048904;28;20487;-68
2022/12/05 06:41:08;;;;;;;74.57;23.67;;;;;;;3.80;100.00;148407.25;5032745;28;20025;-69
2022/12/05 06:43:34;;;;;;;79.97;23.53;;;;;;;3.82;100.00;148411.13;5032255;28;20132;-68
2022/12/05 06:46:04;;;;;;;73.50;23.13;;;;;;;3.84;100.00;148416.25;5040736;28;20120;-68
2022/12/05 06:48:29;;;;;;;80.57;24.57;;;;;;;3.82;100.00;148411.13;5050726;28;20021;-69
2022/12/05 06:50:54;;;;;;;78.70;23.97;;;;;;;3.83;100.00;148414.97;5052017;28;20020;-69
2022/12/05 06:53:20;;;;;;;77.37;24.57;;;;;;;3.86;100.00;148421.41;5040973;28;20048;-68
2022/12/05 06:56:03;;;;;;;77.53;24.13;;;;;;;3.89;100.00;148429.16;5051198;28;20032;-68
2022/12/05 06:58:29;;;;;;;77.90;23.30;;;;;;;3.90;100.00;148430.44;5051962;28;20025;-68
2022/12/05 07:03:39;;;;;;;78.93;25.20;;;;;;;3.88;100.00;148426.59;5051328;28;20150;-68
2022/12/05 07:06:06;;;;;;;81.97;24.60;;;;;;;3.91;100.00;148433.03;5051553;28;20531;-68
2022/12/05 07:08:32;;;;;;;79.67;24.97;;;;;;;3.94;100.00;148442.03;5050267;28;20012;-68
2022/12/05 07:10:58;;;;;;;77.33;24.57;;;;;;;3.92;100.00;148435.59;5052134;28;20098;-68
2022/12/05 07:13:23;;;;;;;79.27;24.93;;;;;;;3.92;100.00;148435.59;5050773;28;20480;-68
2022/12/05 07:15:49;;;;;;;85.27;25.10;;;;;;;3.90;100.00;148431.75;5052016;28;20092;-68
2022/12/05 07:18:15;;;;;;;78.20;25.23;;;;;;;3.93;100.00;148439.44;5051796;28;20025;-68
2022/12/05 07:20:42;;;;;;;84.17;25.53;;;;;;;3.92;100.00;148436.88;5050920;28;20021;-70
2022/12/05 07:23:08;;;;;;;78.60;24.10;;;;;;;3.97;100.00;148449.72;5050851;28;20020;-68
2022/12/05 07:25:33;;;;;;;83.93;24.73;;;;;;;3.97;100.00;148448.44;5049088;28;20032;-69
2022/12/05 07:27:58;;;;;;;76.27;23.73;;;;;;;3.96;100.00;148447.16;5051650;28;20029;-68
2022/12/05 07:30:24;;;;;;;74.83;22.50;;;;;;;3.96;100.00;148447.16;5051298;28;20025;-68
2022/12/05 07:32:49;;;;;;;78.20;24.10;;;;;;;4.00;100.00;148457.50;5051514;28;20025;-68
2022/12/05 07:35:15;;;;;;;75.13;23.67;;;;;;;4.02;100.00;148461.34;5050310;28;20028;-69
2022/12/05 07:37:40;;;;;;;72.03;22.30;;;;;;;4.03;100.00;148463.94;5050268;28;20119;-69
2022/12/05 07:40:06;;;;;;;72.97;24.10;;;;;;;4.02;100.00;148461.34;5049669;28;20391;-68
2022/12/05 07:42:31;;;;;;;69.77;22.47;;;;;;;4.01;100.00;148460.06;5051202;28;20033;-68
2022/12/05 07:44:57;;;;;;;71.20;23.60;;;;;;;4.03;100.00;148463.94;5050729;28;20024;-68
2022/12/05 07:47:22;;;;;;;78.63;24.80;;;;;;;4.03;100.00;148463.94;5050213;28;20498;-70
2022/12/05 07:49:47;;;;;;;80.23;23.70;;;;;;;4.01;100.00;148458.78;5051842;28;20389;-68
2022/12/05 07:52:13;;;;;;;78.40;24.07;;;;;;;4.03;100.00;148463.94;5047914;28;20032;-69
2022/12/05 07:54:38;;;;;;;76.20;23.07;;;;;;;4.05;100.00;148469.06;5050812;28;20029;-69
2022/12/05 07:57:03;;;;;;;68.63;22.17;;;;;;;4.03;100.00;148465.22;5049956;28;20022;-68
2022/12/05 07:59:29;;;;;;;66.63;21.80;;;;;;;4.04;100.00;148467.78;5049697;28;20149;-68
2022/12/05 08:01:54;;;;;;;69.53;22.73;;;;;;;4.04;100.00;148467.78;5051562;28;20426;-69
2022/12/05 08:04:20;;;;;;;72.20;22.40;;;;;;;4.03;100.00;148465.22;5051196;28;20063;-70
2022/12/05 08:06:45;;;;;;;66.83;22.17;;;;;;;4.07;100.00;148475.50;5050297;28;20021;-69
2022/12/05 08:09:10;;;;;;;76.77;23.23;;;;;;;4.06;100.00;148472.94;5044627;28;20017;-69
2022/12/05 08:11:36;;;;;;;79.70;22.90;;;;;;;4.08;100.00;148478.06;5048049;28;20055;-69
2022/12/05 08:14:03;;;;;;;66.10;22.40;;;;;;;4.11;100.00;148484.50;5036104;28;20496;-69
2022/12/05 08:16:30;;;;;;;66.13;21.20;;;;;;;4.11;100.00;148484.50;5038419;28;20025;-70
2022/12/05 08:19:07;;;;;;;70.50;22.47;;;;;;;4.09;100.00;148480.66;5049081;28;20461;-69
2022/12/05 08:21:33;;;;;;;73.73;22.57;;;;;;;4.10;100.00;148483.22;5051333;28;20369;-68
2022/12/05 08:23:59;;;;;;;53.17;16.83;;;;;;;4.14;100.00;148490.97;5045707;28;20449;-69
2022/12/05 08:26:27;;;;;;;61.10;21.10;;;;;;;4.07;100.00;148475.50;5047272;28;20027;-69
2022/12/05 08:29:01;;;;;;;61.03;21.03;;;;;;;4.11;100.00;148485.78;5035183;28;20041;-68
2022/12/05 08:31:29;;;;;;;61.40;20.23;;;;;;;4.14;100.00;148490.97;5050357;28;20503;-68
2022/12/05 08:33:56;;;;;;;56.03;18.87;;;;;;;4.13;100.00;148488.41;5044347;28;20033;-71
2022/12/05 08:36:21;;;;;;;52.87;18.60;;;;;;;4.14;100.00;148492.25;5046188;28;20120;-68
2022/12/05 08:38:47;;;;;;;46.73;16.23;;;;;;;4.11;100.00;148484.50;5047147;28;20131;-71
2022/12/05 08:41:15;;;;;;;42.17;15.73;;;;;;;4.13;100.00;148489.69;5049417;28;20033;-68
2022/12/05 08:43:41;;;;;;;49.63;18.50;;;;;;;4.15;100.00;148493.56;5068185;28;20487;-69
2022/12/05 08:46:07;;;;;;;47.60;16.87;;;;;;;4.11;100.00;148485.78;5049442;28;20028;-69
2022/12/05 08:48:33;;;;;;;39.53;15.70;;;;;;;4.15;100.00;148494.84;5048884;28;20021;-69
2022/12/05 08:51:03;;;;;;;43.73;16.47;;;;;;;4.12;100.00;148487.13;5048512;28;20114;-70
2022/12/05 08:53:28;;;;;;;38.47;15.60;;;;;;;4.14;100.00;148490.97;5058128;28;20032;-71
2022/12/05 08:55:53;;;;;;;36.83;13.33;;;;;;;4.15;100.00;148494.84;5044807;28;20119;-69
2022/12/05 08:58:19;;;;;;;35.20;14.30;;;;;;;4.16;100.00;148496.13;5048130;28;20025;-70
2022/12/05 09:00:44;;;;;;;33.43;14.60;;;;;;;4.15;100.00;148493.56;5054120;28;20499;-71
2022/12/05 09:03:10;;;;;;;34.00;14.23;;;;;;;4.16;100.00;148496.13;5053310;28;20033;-68
2022/12/05 09:05:36;;;;;;;32.47;11.97;;;;;;;4.16;100.00;148497.41;5054294;28;20400;-70
2022/12/05 09:08:02;;;;;;;35.23;14.10;;;;;;;4.15;100.00;148493.56;5054567;28;20013;-68
2022/12/05 09:10:28;;;;;;;33.77;13.90;;;;;;;4.15;100.00;148493.56;5052786;28;20037;-68
2022/12/05 09:12:54;;;;;;;27.37;12.50;;;;;;;4.18;100.00;148501.25;5054396;28;20427;-69
2022/12/05 09:15:19;;;;;;;25.43;11.33;;;;;;;4.17;100.00;148498.69;5054139;28;20430;-68
2022/12/05 09:17:44;;;;;;;26.23;11.87;;;;;;;4.17;100.00;148499.97;5053281;28;20052;-69
2022/12/05 09:20:12;;;;;;;27.80;11.90;;;;;;;4.21;100.00;148508.97;5052695;28;20104;-69
2022/12/05 09:22:39;;;;;;;25.80;12.63;;;;;;;4.21;100.00;148508.97;5053564;28;20033;-68
2022/12/05 09:25:05;;;;;;;29.07;12.67;;;;;;;4.23;100.00;148515.41;5053485;28;20029;-69
2022/12/05 09:27:30;;;;;;;23.20;11.10;;;;;;;4.30;100.00;148532.19;5053485;28;20025;-69
2022/12/05 09:29:56;;;;;;;26.37;11.40;;;;;;;4.29;100.00;148529.59;5052776;28;20472;-68
2022/12/05 09:32:21;;;;;;;28.23;12.27;;;;;;;4.26;100.00;148523.19;5053431;28;20047;-69
2022/12/05 09:34:46;;;;;;;26.60;11.13;;;;;;;4.27;100.00;148525.75;5052824;28;20083;-69
2022/12/05 09:37:12;;;;;;;25.30;12.07;;;;;;;4.29;100.00;148529.59;5053958;28;20155;-68
2022/12/05 09:39:37;;;;;;;25.03;12.20;;;;;;;4.30;100.00;148533.47;5052145;28;20075;-69
2022/12/05 09:42:18;;;;;;;29.33;13.30;;;;;;;4.31;100.00;148534.75;5048334;28;20033;-68
2022/12/05 09:45:01;;;;;;;28.33;12.00;;;;;;;4.32;100.00;148537.31;5053215;28;20037;-68
2022/12/05 09:47:35;;;;;;;35.77;14.53;;;;;;;4.32;100.00;148537.31;5052894;28;20025;-69
2022/12/05 09:50:12;;;;;;;31.23;13.93;;;;;;;4.30;100.00;148533.47;5047580;28;20075;-68
2022/12/05 09:52:42;;;;;;;31.67;13.40;;;;;;;4.32;100.00;148537.31;5050769;28;20086;-68
2022/12/05 09:55:15;;;;;;;32.23;13.97;;;;;;;4.31;100.00;148536.03;5052976;28;20057;-69
2022/12/05 09:58:02;;;;;;;29.50;13.33;;;;;;;4.33;100.00;148539.91;5052364;28;20021;-68
2022/12/05 10:00:29;;;;;;;28.97;12.87;;;;;;;4.34;100.00;148542.47;5053211;28;20025;-69
2022/12/05 10:03:16;;;;;;;29.43;12.73;;;;;;;4.31;100.00;148536.03;5051258;28;20021;-69
2022/12/05 10:06:12;;;;;;;26.20;12.53;;;;;;;4.29;100.00;148529.59;5051667;28;20041;-69
2022/12/05 10:09:08;;;;;;;27.07;11.20;;;;;;;4.33;100.00;148541.19;5033528;28;20032;-69
2022/12/05 10:11:52;;;;;;;16.50;5.83;;;;;;;4.19;100.00;148503.84;5049265;28;20140;-68
2022/12/05 10:14:26;;;;;;;18.93;9.10;;;;;;;4.06;100.00;148472.94;5053119;28;20025;-68
2022/12/05 10:16:55;;;;;;;17.67;7.93;;;;;;;4.02;100.00;148462.66;5052871;28;20036;-68
2022/12/05 10:19:29;;;;;;;18.27;8.97;;;;;;;3.96;100.00;148447.16;5053261;28;20131;-68
2022/12/05 10:22:01;;;;;;;23.63;11.20;;;;;;;3.95;100.00;148443.31;5052551;28;20025;-68
2022/12/05 10:24:29;;;;;;;32.28;11.23;;;;;;;3.99;100.00;148454.88;5051882;28;20023;-68
2022/12/05 10:27:04;;;;;;;22.23;10.00;;;;;;;3.97;100.00;148449.72;5051258;28;20102;-69
2022/12/05 10:29:36;;;;;;;23.37;11.17;;;;;;;3.98;100.00;148451.03;5050960;28;20095;-68
2022/12/05 10:32:12;;;;;;;22.90;11.30;;;;;;;3.96;100.00;148445.88;5037553;28;20060;-69
2022/12/05 10:34:40;;;;;;;27.00;12.10;;;;;;;3.96;100.00;148447.16;5045365;28;20025;-70
2022/12/05 10:37:18;;;;;;;27.53;13.17;;;;;;;3.99;100.00;148454.88;5046186;28;20372;-69
2022/12/05 10:39:45;;;;;;;26.50;11.80;;;;;;;4.00;100.00;148457.50;5048243;28;20388;-70
2022/12/05 10:42:20;;;;;;;24.43;12.27;;;;;;;3.98;100.00;148452.31;5045885;28;20036;-69
2022/12/05 10:44:47;;;;;;;24.00;11.20;;;;;;;3.97;100.00;148449.72;5049210;28;20028;-69
2022/12/05 10:47:12;;;;;;;21.10;10.13;;;;;;;3.96;100.00;148447.16;5049588;28;20027;-69
2022/12/05 10:49:38;;;;;;;25.00;11.87;;;;;;;3.97;100.00;148449.72;5049056;28;20028;-72
2022/12/05 10:52:04;;;;;;;23.93;12.07;;;;;;;3.92;100.00;148435.59;5045009;28;20158;-69
2022/12/05 10:54:40;;;;;;;20.07;9.90;;;;;;;3.96;100.00;148447.16;5048308;28;20488;-69
2022/12/05 10:57:24;;;;;;;24.10;11.47;;;;;;;3.99;100.00;148453.59;5047700;28;20036;-69
2022/12/05 10:59:50;;;;;;;30.10;11.93;;;;;;;3.97;100.00;148449.72;5032116;28;20021;-69
2022/12/05 11:02:23;;;;;;;23.23;12.33;;;;;;;4.00;100.00;148457.50;5051293;28;20040;-68
2022/12/05 11:04:48;;;;;;;27.83;12.50;;;;;;;4.05;100.00;148470.34;5052101;28;20035;-69
2022/12/05 11:07:43;;;;;;;22.37;12.07;;;;;;;4.16;100.00;148496.13;5050977;28;20013;-69
2022/12/05 11:10:25;;;;;;;23.23;12.13;;;;;;;4.09;100.00;148480.66;5048997;28;20566;-70
2022/12/05 11:12:50;;;;;;;26.75;13.18;;;;;;;4.08;100.00;148476.78;5047914;28;20045;-69
2022/12/05 11:15:20;;;;;;;22.23;10.97;;;;;;;4.23;100.00;148514.13;5051924;28;20029;-68
2022/12/05 11:17:46;;;;;;;27.83;13.73;;;;;;;4.19;100.00;148503.84;5050552;28;20025;-69
2022/12/05 11:20:17;;;;;;;27.53;13.03;;;;;;;4.20;100.00;148507.69;5051459;28;20451;-69
2022/12/05 11:22:48;;;;;;;23.52;11.80;;;;;;;4.29;100.00;148529.59;5051802;28;20032;-70
2022/12/05 11:25:32;;;;;;;26.47;13.50;;;;;;;4.24;100.00;148516.69;5051441;28;20425;-68
2022/12/05 11:27:59;;;;;;;22.93;12.07;;;;;;;4.16;100.00;148497.41;5051668;28;20271;-69
2022/12/05 11:30:27;;;;;;;23.77;12.20;;;;;;;4.15;100.00;148494.84;5050856;28;20033;-69
2022/12/05 11:33:18;;;;;;;23.47;11.17;;;;;;;4.09;100.00;148480.66;5052119;28;20043;-69